Latest Weather Observations for She Oaks

IDV60901

Issued at 6:41 pm EST Monday 4 May 2026 (issued every 10 minutes, with the page automatically refreshed every 10 minutes)

About weather observations | Map of Melbourne area stations | Latest observations for Melbourne area | Other Formats
Station Details ID: 087168 Name: SHE OAKS Lat: -37.91 Lon: 144.13 Height: 236.7 m
Data from the previous 72 hours. | See also: Recent months at She Oaks
Date/Time
EST
Temp
°C
App
Temp
°C
Dew
Point
°C
Rel
Hum
%
Delta-T
°C
Wind Press
QNH
hPa
Press
MSL
hPa
Rain since
9am
mm
Dir  Spd
km/h
Gust
km/h
Spd
kts
Gust
kts
04/06:30pm 13.4 10.2 10.0 80 1.8 NW 17 30 9 16 1010.1 1010.2 0.0
04/06:00pm 13.9 10.6 9.7 76 2.2 NW 17 28 9 15 1009.5 1009.5 0.0
04/05:30pm 14.5 10.8 9.3 71 2.7 NNW 19 30 10 16 1009.1 1009.1 0.0
04/05:00pm 14.8 10.8 9.2 69 2.9 NNW 20 30 11 16 1008.8 1008.8 0.0
04/04:30pm 15.3 9.9 9.4 68 3.1 NNW 28 46 15 25 1008.4 1008.4 0.0
04/04:00pm 16.0 10.2 8.0 59 4.1 NNW 28 46 15 25 1008.2 1008.2 0.0
04/03:30pm 16.5 10.5 8.5 59 4.1 NNW 30 54 16 29 1008.1 1008.1 0.0
04/03:08pm 16.3 10.3 8.8 61 3.9 NNW 30 50 16 27 1008.0 1008.0 0.0
04/03:00pm 16.0 10.0 8.5 61 3.9 NNW 30 46 16 25 1008.0 1008.0 0.0
04/02:46pm 16.3 9.9 8.5 60 4.0 NNW 32 52 17 28 1008.0 1008.0 0.0
04/02:30pm 16.6 10.2 8.6 59 4.1 NNW 32 46 17 25 1007.9 1007.9 0.0
04/02:07pm 16.9 10.5 8.6 58 4.3 NNW 32 52 17 28 1007.7 1007.7 0.0
04/02:00pm 16.0 9.3 8.2 60 4.0 NNW 33 52 18 28 1007.7 1007.7 0.0
04/01:40pm 15.9 10.0 8.9 63 3.6 NNW 30 48 16 26 1007.9 1007.9 0.0
04/01:30pm 15.7 9.6 8.2 61 3.8 NNW 30 48 16 26 1008.0 1008.0 0.0
04/01:00pm 15.4 8.3 8.2 62 3.7 NNW 35 61 19 33 1008.1 1008.1 0.0
04/12:40pm 15.4 9.3 8.2 62 3.7 NNW 30 50 16 27 1008.5 1008.5 0.0
04/12:30pm 15.6 8.8 7.9 60 3.9 NNW 33 50 18 27 1008.5 1008.5 0.0
04/12:03pm 14.9 7.7 7.7 62 3.6 NNW 35 63 19 34 1008.8 1008.8 0.0
04/12:00pm 14.8 8.0 7.8 63 3.5 NNW 33 50 18 27 1008.9 1008.9 0.0
04/11:30am 14.6 7.5 7.9 64 3.4 NNW 35 56 19 30 1009.2 1009.2 0.0
04/11:00am 14.3 7.1 7.6 64 3.4 NNW 35 56 19 30 1009.4 1009.4 0.0
04/10:35am 14.2 7.9 7.5 64 3.3 NNW 30 50 16 27 1009.3 1009.3 0.0
04/10:30am 14.3 8.4 7.6 64 3.3 NNW 28 41 15 22 1009.4 1009.4 0.0
04/10:01am 14.0 7.2 6.8 62 3.5 NNW 32 52 17 28 1009.1 1009.1 0.0
04/10:00am 13.9 7.4 6.7 62 3.5 NNW 30 44 16 24 1009.3 1009.3 0.0
04/09:33am 13.5 7.2 7.3 66 3.1 NNW 30 50 16 27 1009.7 1009.7 0.0
04/09:30am 13.4 6.7 7.2 66 3.1 NNW 32 50 17 27 1009.6 1009.6 0.0
04/09:00am 13.3 8.1 7.1 66 3.1 N 24 37 13 20 1009.8 1009.9 3.6
04/08:30am 12.6 8.3 7.1 69 2.7 N 19 32 10 17 1009.8 1009.9 3.6
04/08:00am 11.8 8.6 6.7 71 2.5 N 13 24 7 13 1010.0 1010.1 3.6
04/07:30am 11.2 7.9 6.3 72 2.3 N 13 20 7 11 1009.9 1010.0 3.6
04/07:00am 10.7 8.6 5.9 72 2.3 N 6 11 3 6 1010.1 1010.2 3.6
04/06:30am 11.0 8.7 5.7 70 2.5 N 7 11 4 6 1009.9 1010.0 3.6
04/06:00am 11.7 8.7 6.0 68 2.7 N 11 17 6 9 1009.9 1010.0 3.6
04/05:30am 11.5 8.1 5.8 68 2.7 N 13 20 7 11 1009.9 1010.0 3.6
04/05:00am 11.7 6.9 5.6 66 2.9 N 20 30 11 16 1009.8 1009.9 3.6
04/04:30am 12.0 7.4 5.4 64 3.1 N 19 26 10 14 1009.9 1010.0 3.6
04/04:00am 12.2 7.6 5.4 63 3.2 N 19 28 10 15 1010.0 1010.1 3.6
04/03:30am 11.9 8.0 5.5 65 3.0 N 15 20 8 11 1010.3 1010.4 3.6
04/03:00am 11.8 8.3 5.4 65 3.0 N 13 22 7 12 1010.6 1010.7 3.6
04/02:30am 11.9 8.0 5.5 65 3.0 N 15 24 8 13 1010.7 1010.8 3.6
04/02:00am 12.2 7.9 5.4 63 3.2 N 17 24 9 13 1010.6 1010.7 3.6
04/01:30am 12.2 7.9 5.4 63 3.2 N 17 26 9 14 1010.6 1010.7 3.6
04/01:00am 12.1 7.9 5.7 65 3.0 N 17 24 9 13 1010.7 1010.8 3.6
04/12:30am 12.1 8.7 5.7 65 3.0 N 13 20 7 11 1011.1 1011.2 3.6
04/12:00am 12.5 8.3 5.9 64 3.1 N 17 22 9 12 1011.4 1011.5 3.6
 
Date/Time
EST
Temp
°C
App
Temp
°C
Dew
Point
°C
Rel
Hum
%
Delta-T
°C
Wind Press
QNH
hPa
Press
MSL
hPa
Rain since
9am
mm
Dir  Spd
km/h
Gust
km/h
Spd
kts
Gust
kts
03/11:30pm 12.7 8.5 5.8 63 3.3 N 17 26 9 14 1011.4 1011.5 3.6
03/11:00pm 12.9 8.8 6.0 63 3.3 N 17 26 9 14 1011.9 1011.9 3.6
03/10:30pm 13.3 10.0 6.4 63 3.3 NNW 13 22 7 12 1012.2 1012.2 3.6
03/10:00pm 13.6 10.0 6.7 63 3.4 N 15 22 8 12 1012.4 1012.4 3.6
03/09:30pm 13.5 9.9 6.8 64 3.3 N 15 20 8 11 1012.5 1012.5 3.6
03/09:00pm 13.5 10.4 7.1 65 3.2 N 13 19 7 10 1012.2 1012.2 3.6
03/08:30pm 13.0 10.8 7.7 70 2.6 NNE 9 15 5 8 1012.3 1012.3 3.6
03/08:00pm 11.9 10.9 7.4 74 2.2 NE 2 7 1 4 1012.0 1012.0 3.6
03/07:30pm 12.6 11.4 7.9 73 2.3 NNW 4 7 2 4 1011.9 1011.9 3.6
03/07:00pm 13.1 11.4 8.2 72 2.5 N 7 9 4 5 1011.6 1011.6 3.6
03/06:30pm 13.9 12.2 8.3 69 2.8 N 7 11 4 6 1011.0 1011.1 3.6
03/06:00pm 14.7 12.7 8.6 67 3.1 NNW 9 19 5 10 1010.7 1010.8 3.6
03/05:30pm 15.4 12.7 8.9 65 3.4 NNW 13 20 7 11 1010.3 1010.4 3.6
03/05:00pm 16.0 12.1 8.7 62 3.8 NNW 19 28 10 15 1010.1 1010.2 3.6
03/04:30pm 16.7 13.9 8.4 58 4.3 NNW 13 24 7 13 1010.0 1010.1 3.6
03/04:00pm 16.7 12.7 8.1 57 4.4 NNW 19 28 10 15 1010.3 1010.4 3.6
03/03:30pm 16.7 13.0 8.1 57 4.4 NW 17 28 9 15 1010.5 1010.6 3.6
03/03:00pm 17.0 12.9 7.9 55 4.7 NW 19 32 10 17 1010.4 1010.5 3.6
03/02:30pm 16.9 12.2 7.8 55 4.6 NW 22 39 12 21 1010.3 1010.4 3.6
03/02:00pm 17.4 13.5 6.9 50 5.3 NNW 17 33 9 18 1010.2 1010.3 3.6
03/01:30pm 16.4 13.1 8.1 58 4.3 NNW 15 26 8 14 1010.3 1010.4 3.6
03/01:00pm 15.7 12.7 9.4 66 3.3 NNW 15 24 8 13 1010.4 1010.5 3.6
03/12:30pm 15.5 12.1 10.7 73 2.6 NNW 19 33 10 18 1010.4 1010.5 3.6
03/12:00pm 14.8 13.3 13.0 89 1.0 NW 13 19 7 10 1011.0 1011.1 3.4
03/11:30am 14.3 12.4 13.0 92 0.7 WNW 15 24 8 13 1011.1 1011.2 3.2
03/11:00am 16.5 16.5 15.2 92 0.8 NNW 9 19 5 10 1010.5 1010.6 1.6
03/10:30am 16.4 15.1 14.8 90 0.9 N 15 22 8 12 1010.1 1010.2 1.2
03/10:00am 16.5 15.8 14.3 87 1.3 N 11 20 6 11 1010.3 1010.4 0.6
03/09:30am 16.8 15.9 13.7 82 1.8 N 11 17 6 9 1010.5 1010.6 0.0
03/09:00am 17.0 14.5 13.5 80 2.0 NNE 19 28 10 15 1010.0 1010.1 0.8
03/08:30am 17.9 16.7 12.8 72 2.9 NNE 11 17 6 9 1010.4 1010.5 0.2
03/08:00am 17.5 16.3 12.8 74 2.7 NNE 11 24 6 13 1010.1 1010.2 0.2
03/07:30am 17.0 14.9 12.3 74 2.6 NNE 15 26 8 14 1010.3 1010.4 0.2
03/07:00am 16.9 12.7 12.4 75 2.5 N 26 44 14 24 1009.8 1009.9 0.2
03/06:30am 16.5 11.6 12.5 77 2.2 N 30 43 16 23 1009.9 1010.0 0.2
03/06:00am 16.1 11.3 13.0 82 1.7 N 30 48 16 26 1009.8 1009.9 0.2
03/05:30am 18.6 12.9 11.2 62 4.1 N 32 54 17 29 1010.8 1010.9 0.0
03/05:23am 18.5 13.5 11.1 62 4.1 N 28 46 15 25 1010.9 1011.0 0.0
03/05:00am 18.7 15.8 11.0 61 4.2 N 17 30 9 16 1011.3 1011.4 0.0
03/04:30am 18.6 15.3 10.9 61 4.2 NNE 19 30 10 16 1010.5 1010.6 0.0
03/04:00am 18.3 15.4 10.9 62 4.1 N 17 32 9 17 1011.0 1011.1 0.0
03/03:30am 18.5 15.0 10.8 61 4.2 N 20 30 11 16 1011.0 1011.1 0.0
03/03:00am 18.9 15.3 10.7 59 4.5 NNE 20 33 11 18 1011.9 1011.9 0.0
03/02:30am 18.7 14.7 10.5 59 4.5 NNE 22 32 12 17 1012.2 1012.2 0.0
03/02:00am 18.5 15.9 10.8 61 4.2 N 15 22 8 12 1012.2 1012.2 0.0
03/01:30am 18.4 15.1 11.0 62 4.1 N 19 26 10 14 1012.8 1012.8 0.0
03/01:00am 18.4 14.6 11.0 62 4.1 N 22 35 12 19 1012.9 1012.9 0.0
03/12:30am 18.1 15.2 11.0 63 3.9 N 17 24 9 13 1013.3 1013.3 0.0
03/12:00am 18.2 14.0 11.0 63 3.9 N 24 39 13 21 1013.5 1013.6 0.0
 
Date/Time
EST
Temp
°C
App
Temp
°C
Dew
Point
°C
Rel
Hum
%
Delta-T
°C
Wind Press
QNH
hPa
Press
MSL
hPa
Rain since
9am
mm
Dir  Spd
km/h
Gust
km/h
Spd
kts
Gust
kts
02/11:30pm 18.1 14.7 11.2 64 3.8 N 20 33 11 18 1013.6 1013.7 0.0
02/11:00pm 18.2 13.7 11.3 64 3.8 N 26 43 14 23 1013.8 1013.9 0.0
02/10:30pm 18.3 13.7 11.1 63 4.0 N 26 37 14 20 1013.9 1014.0 0.0
02/10:00pm 18.2 13.6 11.0 63 3.9 N 26 37 14 20 1014.2 1014.3 0.0
02/09:30pm 18.9 13.0 10.5 58 4.6 N 32 59 17 32 1014.3 1014.4 0.0
02/09:16pm 19.1 13.5 10.1 56 4.9 N 30 50 16 27 1014.4 1014.5 0.0
02/09:00pm 18.6 13.8 10.2 58 4.5 N 26 37 14 20 1014.4 1014.5 0.0
02/08:30pm 18.5 13.7 10.3 59 4.4 N 26 33 14 18 1014.7 1014.8 0.0
02/08:00pm 18.4 14.7 10.3 59 4.4 N 20 33 11 18 1014.6 1014.7 0.0
02/07:30pm 19.0 15.8 9.8 55 4.9 N 17 28 9 15 1014.8 1014.9 0.0
02/07:00pm 20.1 15.4 9.1 49 5.9 N 24 35 13 19 1014.9 1015.0 0.0
02/06:30pm 20.8 17.5 8.1 44 6.7 NNE 15 22 8 12 1014.8 1014.9 0.0
02/06:00pm 21.1 17.0 8.0 43 6.9 NNE 19 30 10 16 1014.5 1014.6 0.0
02/05:30pm 21.6 16.9 7.8 41 7.3 NNE 22 32 12 17 1014.3 1014.4 0.0
02/05:00pm 22.1 16.6 7.5 39 7.7 NNE 26 37 14 20 1014.1 1014.2 0.0
02/04:30pm 22.5 17.0 7.5 38 7.9 N 26 35 14 19 1013.9 1014.0 0.0
02/04:00pm 22.8 16.8 7.0 36 8.2 N 28 41 15 22 1013.7 1013.8 0.0
02/03:36pm 24.2 18.3 7.4 34 8.9 N 28 46 15 25 1013.8 1013.9 0.0
02/03:30pm 24.2 17.5 7.4 34 8.9 N 32 46 17 25 1013.8 1013.9 0.0
02/03:12pm 24.5 18.2 7.2 33 9.2 N 30 54 16 29 1013.7 1013.8 0.0
02/03:00pm 24.3 17.5 7.0 33 9.1 N 32 48 17 26 1013.5 1013.6 0.0
02/02:30pm 24.3 17.0 7.0 33 9.1 N 35 50 19 27 1013.6 1013.7 0.0
02/02:00pm 23.7 16.2 6.5 33 8.9 N 35 56 19 30 1013.8 1013.9 0.0
02/01:51pm 23.9 17.1 7.1 34 8.8 N 32 52 17 28 1014.0 1014.1 0.0
02/01:30pm 23.1 17.5 7.2 36 8.3 N 26 35 14 19 1014.5 1014.6 0.0
02/01:00pm 22.1 16.9 7.1 38 7.8 N 24 33 13 18 1015.1 1015.2 0.0
02/12:30pm 21.4 16.1 6.9 39 7.5 N 24 32 13 17 1015.8 1015.9 0.0
02/12:00pm 21.2 15.4 6.3 38 7.6 N 26 39 14 21 1016.5 1016.5 0.0
02/11:30am 21.1 16.1 6.6 39 7.4 N 22 32 12 17 1017.2 1017.3 0.0
02/11:00am 21.1 16.1 6.6 39 7.4 N 22 35 12 19 1017.5 1017.6 0.0
02/10:30am 20.6 16.0 6.5 40 7.2 N 20 33 11 18 1017.8 1017.9 0.0
02/10:00am 20.4 15.8 6.4 40 7.1 N 20 32 11 17 1017.9 1018.0 0.0
02/09:30am 20.0 16.1 7.1 43 6.6 NNE 17 24 9 13 1018.5 1018.6 0.0
02/09:00am 19.5 16.3 6.9 44 6.4 NNE 13 22 7 12 1018.6 1018.7 0.0
02/08:30am 18.6 16.2 7.1 47 5.9 NNE 9 13 5 7 1018.7 1018.8 0.0
02/08:00am 18.1 15.2 6.6 47 5.8 NNE 11 15 6 8 1018.6 1018.7 0.0
02/07:30am 18.3 15.0 6.5 46 5.9 NNE 13 17 7 9 1018.4 1018.5 0.0
02/07:00am 18.1 15.2 6.6 47 5.8 NNE 11 15 6 8 1018.2 1018.3 0.0
02/06:30am 18.2 15.0 6.7 47 5.8 NNE 13 17 7 9 1018.0 1018.1 0.0
02/06:00am 18.5 15.6 6.7 46 5.9 NNE 11 17 6 9 1018.0 1018.1 0.0
02/05:30am 18.6 14.9 6.4 45 6.1 NNE 15 19 8 10 1018.0 1018.1 0.0
02/05:00am 18.5 15.3 6.7 46 5.9 NNE 13 19 7 10 1018.1 1018.2 0.0
02/04:30am 18.4 15.2 6.9 47 5.8 NNE 13 20 7 11 1018.3 1018.4 0.0
02/04:00am 18.3 15.1 6.8 47 5.8 NNE 13 17 7 9 1018.5 1018.6 0.0
02/03:30am 18.8 15.6 6.9 46 6.0 NNE 13 19 7 10 1018.6 1018.7 0.0
02/03:00am 19.4 15.1 7.2 45 6.2 NNE 19 26 10 14 1018.7 1018.8 0.0
02/02:30am 19.4 16.3 7.2 45 6.3 NNE 13 22 7 12 1018.9 1019.0 0.0
02/02:00am 19.5 16.0 7.3 45 6.3 NNE 15 22 8 12 1019.3 1019.4 0.0
02/01:30am 17.3 14.7 7.6 53 4.9 NE 11 15 6 8 1019.6 1019.7 0.0
02/01:00am 18.3 15.4 8.0 51 5.3 NNE 13 19 7 10 1019.9 1020.0 0.0
02/12:30am 18.3 15.8 8.3 52 5.2 NNE 11 17 6 9 1020.1 1020.2 0.0
02/12:00am 18.2 15.2 7.9 51 5.3 NNE 13 17 7 9 1020.6 1020.7 0.0
 
Date/Time
EST
Temp
°C
App
Temp
°C
Dew
Point
°C
Rel
Hum
%
Delta-T
°C
Wind Press
QNH
hPa
Press
MSL
hPa
Rain since
9am
mm
Dir  Spd
km/h
Gust
km/h
Spd
kts
Gust
kts
01/11:30pm 18.7 15.8 8.1 50 5.5 NNE 13 19 7 10 1021.0 1021.1 0.0
01/11:00pm 18.8 16.2 7.9 49 5.6 N 11 15 6 8 1021.3 1021.4 0.0
01/10:30pm 19.4 16.4 7.5 46 6.1 NNE 13 19 7 10 1021.6 1021.7 0.0
01/10:00pm 19.0 16.2 6.8 45 6.2 NNE 11 17 6 9 1021.8 1021.9 0.0
01/09:30pm 19.6 16.1 7.0 44 6.4 NNE 15 20 8 11 1021.8 1021.9 0.0
01/09:00pm 19.9 16.4 7.0 43 6.6 N 15 20 8 11 1021.8 1021.9 0.0
01/08:30pm 19.4 16.6 6.8 44 6.4 N 11 15 6 8 1021.8 1021.9 0.0
01/08:00pm 20.1 17.0 7.1 43 6.7 NNE 13 17 7 9 1021.7 1021.8 0.0
01/07:30pm 20.5 17.5 7.5 43 6.8 NNE 13 19 7 10 1021.6 1021.7 0.0
01/07:00pm 20.5 17.9 7.8 44 6.6 NNE 11 15 6 8 1021.6 1021.7 0.0

Latest Capital City Observations: Canberra | Sydney | Melbourne | Brisbane | Adelaide | Perth | Hobart | Darwin

Other formats

Comma delimited format used in spreadsheet applications
http://www.bom.gov.au/fwo/IDV60901/IDV60901.94863.axf

JavaScript Object Notation format (JSON) in row-major order
http://www.bom.gov.au/fwo/IDV60901/IDV60901.94863.json

Data quality

Most of these data are generated automatically and are frequently updated. Quality checks on data are not normally performed. It is possible for incorrect values to appear. Refer to information at About Latest Weather Observations and please check the disclaimer before using these data.